sensor_id;sensor_type;location;lat;lon;timestamp;P1;durP1;ratioP1;P2;durP2;ratioP2
13147;SDS011;6639;50.956;4.242;2024-02-26T00:01:11;2.67;;;1.27;;
13147;SDS011;6639;50.956;4.242;2024-02-26T00:03:38;1.23;;;1.15;;
13147;SDS011;6639;50.956;4.242;2024-02-26T00:06:08;1.13;;;1.02;;
13147;SDS011;6639;50.956;4.242;2024-02-26T00:08:35;2.13;;;1.30;;
13147;SDS011;6639;50.956;4.242;2024-02-26T00:11:02;1.00;;;1.00;;
13147;SDS011;6639;50.956;4.242;2024-02-26T00:13:29;2.40;;;1.10;;
13147;SDS011;6639;50.956;4.242;2024-02-26T00:15:56;4.05;;;1.08;;
13147;SDS011;6639;50.956;4.242;2024-02-26T00:18:23;0.95;;;0.90;;
13147;SDS011;6639;50.956;4.242;2024-02-26T00:20:50;1.20;;;1.10;;
13147;SDS011;6639;50.956;4.242;2024-02-26T00:23:18;1.00;;;1.00;;
13147;SDS011;6639;50.956;4.242;2024-02-26T00:25:45;2.13;;;1.00;;
13147;SDS011;6639;50.956;4.242;2024-02-26T00:28:13;1.20;;;1.10;;
13147;SDS011;6639;50.956;4.242;2024-02-26T00:30:40;1.30;;;1.10;;
13147;SDS011;6639;50.956;4.242;2024-02-26T00:33:07;1.17;;;1.08;;
13147;SDS011;6639;50.956;4.242;2024-02-26T00:35:34;1.40;;;0.85;;
13147;SDS011;6639;50.956;4.242;2024-02-26T00:38:00;1.65;;;1.02;;
13147;SDS011;6639;50.956;4.242;2024-02-26T00:40:29;1.50;;;1.17;;
13147;SDS011;6639;50.956;4.242;2024-02-26T00:42:56;1.15;;;0.90;;
13147;SDS011;6639;50.956;4.242;2024-02-26T00:45:23;1.13;;;1.00;;
13147;SDS011;6639;50.956;4.242;2024-02-26T00:47:50;1.15;;;1.10;;
13147;SDS011;6639;50.956;4.242;2024-02-26T00:50:17;0.90;;;0.82;;
13147;SDS011;6639;50.956;4.242;2024-02-26T00:52:44;1.67;;;1.08;;
13147;SDS011;6639;50.956;4.242;2024-02-26T00:55:11;2.92;;;1.33;;
13147;SDS011;6639;50.956;4.242;2024-02-26T00:57:39;1.35;;;1.10;;
13147;SDS011;6639;50.956;4.242;2024-02-26T01:00:06;1.60;;;1.10;;
13147;SDS011;6639;50.956;4.242;2024-02-26T01:02:34;1.77;;;1.33;;
13147;SDS011;6639;50.956;4.242;2024-02-26T01:05:02;0.82;;;0.77;;
13147;SDS011;6639;50.956;4.242;2024-02-26T01:07:29;1.00;;;1.00;;
13147;SDS011;6639;50.956;4.242;2024-02-26T01:10:00;1.13;;;0.90;;
13147;SDS011;6639;50.956;4.242;2024-02-26T01:12:27;0.90;;;0.90;;
13147;SDS011;6639;50.956;4.242;2024-02-26T01:14:56;1.88;;;0.93;;
13147;SDS011;6639;50.956;4.242;2024-02-26T01:17:23;1.88;;;1.48;;
13147;SDS011;6639;50.956;4.242;2024-02-26T01:19:50;1.00;;;0.90;;
13147;SDS011;6639;50.956;4.242;2024-02-26T01:22:17;3.72;;;1.20;;
13147;SDS011;6639;50.956;4.242;2024-02-26T01:24:44;1.88;;;0.68;;
13147;SDS011;6639;50.956;4.242;2024-02-26T01:27:11;1.65;;;1.05;;
13147;SDS011;6639;50.956;4.242;2024-02-26T01:29:39;2.10;;;0.80;;
13147;SDS011;6639;50.956;4.242;2024-02-26T01:32:07;0.90;;;0.90;;
13147;SDS011;6639;50.956;4.242;2024-02-26T01:34:35;0.57;;;0.57;;
13147;SDS011;6639;50.956;4.242;2024-02-26T01:37:02;1.27;;;1.13;;
13147;SDS011;6639;50.956;4.242;2024-02-26T01:39:29;0.98;;;0.93;;
13147;SDS011;6639;50.956;4.242;2024-02-26T01:41:56;0.90;;;0.82;;
13147;SDS011;6639;50.956;4.242;2024-02-26T01:44:23;0.85;;;0.85;;
13147;SDS011;6639;50.956;4.242;2024-02-26T01:46:50;0.90;;;0.90;;
13147;SDS011;6639;50.956;4.242;2024-02-26T01:49:19;1.52;;;0.80;;
13147;SDS011;6639;50.956;4.242;2024-02-26T01:51:46;1.40;;;0.85;;
13147;SDS011;6639;50.956;4.242;2024-02-26T01:54:13;0.93;;;0.90;;
13147;SDS011;6639;50.956;4.242;2024-02-26T01:56:40;0.77;;;0.68;;
13147;SDS011;6639;50.956;4.242;2024-02-26T01:59:07;0.93;;;0.82;;
13147;SDS011;6639;50.956;4.242;2024-02-26T02:01:35;1.80;;;0.90;;
13147;SDS011;6639;50.956;4.242;2024-02-26T02:04:02;1.58;;;0.75;;
13147;SDS011;6639;50.956;4.242;2024-02-26T02:06:31;1.73;;;1.10;;
13147;SDS011;6639;50.956;4.242;2024-02-26T02:08:58;0.85;;;0.85;;
13147;SDS011;6639;50.956;4.242;2024-02-26T02:11:31;1.13;;;1.02;;
13147;SDS011;6639;50.956;4.242;2024-02-26T02:13:58;0.88;;;0.88;;
13147;SDS011;6639;50.956;4.242;2024-02-26T02:16:25;2.20;;;1.00;;
13147;SDS011;6639;50.956;4.242;2024-02-26T02:18:52;1.23;;;1.13;;
13147;SDS011;6639;50.956;4.242;2024-02-26T02:21:20;0.80;;;0.80;;
13147;SDS011;6639;50.956;4.242;2024-02-26T02:23:47;2.00;;;1.23;;
13147;SDS011;6639;50.956;4.242;2024-02-26T02:26:14;1.98;;;1.48;;
13147;SDS011;6639;50.956;4.242;2024-02-26T02:28:42;1.52;;;1.42;;
13147;SDS011;6639;50.956;4.242;2024-02-26T02:31:09;1.90;;;1.10;;
13147;SDS011;6639;50.956;4.242;2024-02-26T02:33:36;1.10;;;1.00;;
13147;SDS011;6639;50.956;4.242;2024-02-26T02:36:04;1.73;;;1.10;;
13147;SDS011;6639;50.956;4.242;2024-02-26T02:38:36;2.50;;;1.25;;
13147;SDS011;6639;50.956;4.242;2024-02-26T02:41:03;2.97;;;1.30;;
13147;SDS011;6639;50.956;4.242;2024-02-26T02:43:30;3.30;;;1.38;;
13147;SDS011;6639;50.956;4.242;2024-02-26T02:45:57;1.92;;;1.20;;
13147;SDS011;6639;50.956;4.242;2024-02-26T02:48:24;1.15;;;1.05;;
13147;SDS011;6639;50.956;4.242;2024-02-26T02:50:51;2.17;;;1.35;;
13147;SDS011;6639;50.956;4.242;2024-02-26T02:53:18;3.13;;;1.75;;
13147;SDS011;6639;50.956;4.242;2024-02-26T02:55:46;1.65;;;1.55;;
13147;SDS011;6639;50.956;4.242;2024-02-26T02:58:13;2.50;;;1.63;;
13147;SDS011;6639;50.956;4.242;2024-02-26T03:00:40;1.67;;;1.58;;
13147;SDS011;6639;50.956;4.242;2024-02-26T03:03:07;2.63;;;1.83;;
13147;SDS011;6639;50.956;4.242;2024-02-26T03:05:34;3.95;;;2.00;;
13147;SDS011;6639;50.956;4.242;2024-02-26T03:08:00;1.80;;;1.50;;
13147;SDS011;6639;50.956;4.242;2024-02-26T03:10:26;4.60;;;2.05;;
13147;SDS011;6639;50.956;4.242;2024-02-26T03:12:55;3.63;;;2.10;;
13147;SDS011;6639;50.956;4.242;2024-02-26T03:15:22;1.98;;;1.60;;
13147;SDS011;6639;50.956;4.242;2024-02-26T03:17:48;2.95;;;1.88;;
13147;SDS011;6639;50.956;4.242;2024-02-26T03:20:15;2.55;;;1.90;;
13147;SDS011;6639;50.956;4.242;2024-02-26T03:22:44;1.98;;;1.88;;
13147;SDS011;6639;50.956;4.242;2024-02-26T03:25:11;2.42;;;2.22;;
13147;SDS011;6639;50.956;4.242;2024-02-26T03:27:38;5.07;;;1.95;;
13147;SDS011;6639;50.956;4.242;2024-02-26T03:30:07;2.72;;;1.83;;
13147;SDS011;6639;50.956;4.242;2024-02-26T03:32:35;2.45;;;2.03;;
13147;SDS011;6639;50.956;4.242;2024-02-26T03:35:02;3.22;;;2.08;;
13147;SDS011;6639;50.956;4.242;2024-02-26T03:37:29;2.35;;;2.15;;
13147;SDS011;6639;50.956;4.242;2024-02-26T03:39:56;2.40;;;2.20;;
13147;SDS011;6639;50.956;4.242;2024-02-26T03:42:23;2.13;;;1.90;;
13147;SDS011;6639;50.956;4.242;2024-02-26T03:44:50;2.25;;;2.08;;
13147;SDS011;6639;50.956;4.242;2024-02-26T03:47:18;3.45;;;2.60;;
13147;SDS011;6639;50.956;4.242;2024-02-26T03:49:45;3.25;;;2.47;;
13147;SDS011;6639;50.956;4.242;2024-02-26T03:52:12;2.80;;;2.60;;
13147;SDS011;6639;50.956;4.242;2024-02-26T03:54:40;2.70;;;2.50;;
13147;SDS011;6639;50.956;4.242;2024-02-26T03:57:06;2.92;;;2.72;;
13147;SDS011;6639;50.956;4.242;2024-02-26T03:59:33;3.22;;;2.92;;
13147;SDS011;6639;50.956;4.242;2024-02-26T04:02:01;3.22;;;2.95;;
13147;SDS011;6639;50.956;4.242;2024-02-26T04:04:29;3.65;;;3.28;;
13147;SDS011;6639;50.956;4.242;2024-02-26T04:06:56;4.32;;;3.63;;
13147;SDS011;6639;50.956;4.242;2024-02-26T04:09:23;3.75;;;3.38;;
13147;SDS011;6639;50.956;4.242;2024-02-26T04:11:50;3.80;;;3.50;;
13147;SDS011;6639;50.956;4.242;2024-02-26T04:14:17;4.93;;;4.10;;
13147;SDS011;6639;50.956;4.242;2024-02-26T04:16:44;4.95;;;4.00;;
13147;SDS011;6639;50.956;4.242;2024-02-26T04:19:10;4.07;;;3.65;;
13147;SDS011;6639;50.956;4.242;2024-02-26T04:21:40;5.05;;;4.53;;
13147;SDS011;6639;50.956;4.242;2024-02-26T04:24:07;5.10;;;4.50;;
13147;SDS011;6639;50.956;4.242;2024-02-26T04:26:34;4.55;;;4.10;;
13147;SDS011;6639;50.956;4.242;2024-02-26T04:29:01;4.45;;;4.07;;
13147;SDS011;6639;50.956;4.242;2024-02-26T04:31:28;5.72;;;4.28;;
13147;SDS011;6639;50.956;4.242;2024-02-26T04:33:58;4.72;;;4.32;;
13147;SDS011;6639;50.956;4.242;2024-02-26T04:36:24;4.93;;;4.53;;
13147;SDS011;6639;50.956;4.242;2024-02-26T04:38:53;5.13;;;4.57;;
13147;SDS011;6639;50.956;4.242;2024-02-26T04:41:20;5.80;;;5.00;;
13147;SDS011;6639;50.956;4.242;2024-02-26T04:43:50;5.00;;;4.60;;
13147;SDS011;6639;50.956;4.242;2024-02-26T04:46:18;5.63;;;5.13;;
13147;SDS011;6639;50.956;4.242;2024-02-26T04:48:46;5.55;;;4.78;;
13147;SDS011;6639;50.956;4.242;2024-02-26T04:51:13;4.85;;;4.45;;
13147;SDS011;6639;50.956;4.242;2024-02-26T04:53:40;6.75;;;6.03;;
13147;SDS011;6639;50.956;4.242;2024-02-26T04:56:08;7.47;;;5.97;;
13147;SDS011;6639;50.956;4.242;2024-02-26T04:58:35;6.82;;;6.15;;
13147;SDS011;6639;50.956;4.242;2024-02-26T05:01:03;7.03;;;6.40;;
13147;SDS011;6639;50.956;4.242;2024-02-26T05:03:30;6.45;;;5.85;;
13147;SDS011;6639;50.956;4.242;2024-02-26T05:05:57;6.78;;;6.18;;
13147;SDS011;6639;50.956;4.242;2024-02-26T05:08:24;8.30;;;6.70;;
13147;SDS011;6639;50.956;4.242;2024-02-26T05:10:51;7.78;;;6.55;;
13147;SDS011;6639;50.956;4.242;2024-02-26T05:13:19;6.82;;;6.10;;
13147;SDS011;6639;50.956;4.242;2024-02-26T05:15:46;7.15;;;6.45;;
13147;SDS011;6639;50.956;4.242;2024-02-26T05:18:14;7.47;;;6.88;;
13147;SDS011;6639;50.956;4.242;2024-02-26T05:20:41;7.00;;;6.15;;
13147;SDS011;6639;50.956;4.242;2024-02-26T05:23:09;6.45;;;5.95;;
13147;SDS011;6639;50.956;4.242;2024-02-26T05:25:35;7.05;;;6.38;;
13147;SDS011;6639;50.956;4.242;2024-02-26T05:28:04;8.05;;;6.95;;
13147;SDS011;6639;50.956;4.242;2024-02-26T05:30:32;6.68;;;5.97;;
13147;SDS011;6639;50.956;4.242;2024-02-26T05:32:59;7.63;;;6.85;;
13147;SDS011;6639;50.956;4.242;2024-02-26T05:35:26;7.60;;;6.97;;
13147;SDS011;6639;50.956;4.242;2024-02-26T05:37:53;6.95;;;6.40;;
13147;SDS011;6639;50.956;4.242;2024-02-26T05:40:20;7.38;;;6.68;;
13147;SDS011;6639;50.956;4.242;2024-02-26T05:42:47;6.32;;;5.82;;
13147;SDS011;6639;50.956;4.242;2024-02-26T05:45:14;6.93;;;6.35;;
13147;SDS011;6639;50.956;4.242;2024-02-26T05:47:43;6.65;;;6.05;;
13147;SDS011;6639;50.956;4.242;2024-02-26T05:50:10;5.93;;;5.32;;
13147;SDS011;6639;50.956;4.242;2024-02-26T05:52:37;6.57;;;6.05;;
13147;SDS011;6639;50.956;4.242;2024-02-26T05:55:05;6.13;;;5.63;;
13147;SDS011;6639;50.956;4.242;2024-02-26T05:57:33;7.32;;;5.90;;
13147;SDS011;6639;50.956;4.242;2024-02-26T06:00:01;5.65;;;4.97;;
13147;SDS011;6639;50.956;4.242;2024-02-26T06:02:29;5.65;;;5.15;;
13147;SDS011;6639;50.956;4.242;2024-02-26T06:04:58;5.68;;;5.20;;
13147;SDS011;6639;50.956;4.242;2024-02-26T06:07:25;4.35;;;4.05;;
13147;SDS011;6639;50.956;4.242;2024-02-26T06:09:52;6.00;;;5.40;;
13147;SDS011;6639;50.956;4.242;2024-02-26T06:12:19;6.05;;;5.55;;
13147;SDS011;6639;50.956;4.242;2024-02-26T06:14:46;5.38;;;4.97;;
13147;SDS011;6639;50.956;4.242;2024-02-26T06:17:13;5.88;;;5.38;;
13147;SDS011;6639;50.956;4.242;2024-02-26T06:19:40;5.63;;;5.07;;
13147;SDS011;6639;50.956;4.242;2024-02-26T06:22:08;6.50;;;5.43;;
13147;SDS011;6639;50.956;4.242;2024-02-26T06:24:35;6.15;;;5.60;;
13147;SDS011;6639;50.956;4.242;2024-02-26T06:27:02;6.20;;;5.65;;
13147;SDS011;6639;50.956;4.242;2024-02-26T06:29:29;6.03;;;5.50;;
13147;SDS011;6639;50.956;4.242;2024-02-26T06:31:56;5.63;;;5.22;;
13147;SDS011;6639;50.956;4.242;2024-02-26T06:34:23;7.25;;;6.72;;
13147;SDS011;6639;50.956;4.242;2024-02-26T06:36:50;6.82;;;5.80;;
13147;SDS011;6639;50.956;4.242;2024-02-26T06:39:18;6.18;;;5.68;;
13147;SDS011;6639;50.956;4.242;2024-02-26T06:41:45;6.22;;;5.72;;
13147;SDS011;6639;50.956;4.242;2024-02-26T06:44:13;7.10;;;6.30;;
13147;SDS011;6639;50.956;4.242;2024-02-26T06:46:40;6.47;;;5.97;;
13147;SDS011;6639;50.956;4.242;2024-02-26T06:49:07;6.53;;;6.03;;
13147;SDS011;6639;50.956;4.242;2024-02-26T06:51:34;6.80;;;5.85;;
13147;SDS011;6639;50.956;4.242;2024-02-26T06:54:01;7.30;;;6.70;;
13147;SDS011;6639;50.956;4.242;2024-02-26T06:56:29;6.63;;;6.07;;
13147;SDS011;6639;50.956;4.242;2024-02-26T06:58:56;6.57;;;6.07;;
13147;SDS011;6639;50.956;4.242;2024-02-26T07:01:23;7.10;;;6.60;;
13147;SDS011;6639;50.956;4.242;2024-02-26T07:03:52;7.40;;;6.78;;
13147;SDS011;6639;50.956;4.242;2024-02-26T07:06:19;6.60;;;6.03;;
13147;SDS011;6639;50.956;4.242;2024-02-26T07:08:46;6.65;;;5.90;;
13147;SDS011;6639;50.956;4.242;2024-02-26T07:11:14;7.50;;;6.90;;
13147;SDS011;6639;50.956;4.242;2024-02-26T07:13:43;8.05;;;7.35;;
13147;SDS011;6639;50.956;4.242;2024-02-26T07:16:10;8.00;;;7.30;;
13147;SDS011;6639;50.956;4.242;2024-02-26T07:18:37;6.93;;;6.32;;
13147;SDS011;6639;50.956;4.242;2024-02-26T07:21:05;7.18;;;6.55;;
13147;SDS011;6639;50.956;4.242;2024-02-26T07:23:32;7.68;;;6.85;;
13147;SDS011;6639;50.956;4.242;2024-02-26T07:25:59;7.82;;;7.18;;
13147;SDS011;6639;50.956;4.242;2024-02-26T07:28:26;7.10;;;6.50;;
13147;SDS011;6639;50.956;4.242;2024-02-26T07:30:54;6.50;;;5.90;;
13147;SDS011;6639;50.956;4.242;2024-02-26T07:33:21;6.75;;;6.20;;
13147;SDS011;6639;50.956;4.242;2024-02-26T07:35:48;6.70;;;6.10;;
13147;SDS011;6639;50.956;4.242;2024-02-26T07:38:15;7.00;;;6.50;;
13147;SDS011;6639;50.956;4.242;2024-02-26T07:40:42;7.32;;;6.72;;
13147;SDS011;6639;50.956;4.242;2024-02-26T07:43:09;6.40;;;5.93;;
13147;SDS011;6639;50.956;4.242;2024-02-26T07:45:36;6.25;;;5.75;;
13147;SDS011;6639;50.956;4.242;2024-02-26T07:48:05;5.43;;;5.03;;
13147;SDS011;6639;50.956;4.242;2024-02-26T07:50:32;5.65;;;5.25;;
13147;SDS011;6639;50.956;4.242;2024-02-26T07:52:59;5.75;;;5.20;;
13147;SDS011;6639;50.956;4.242;2024-02-26T07:55:26;6.35;;;5.85;;
13147;SDS011;6639;50.956;4.242;2024-02-26T07:57:53;6.40;;;5.78;;
13147;SDS011;6639;50.956;4.242;2024-02-26T08:00:20;5.88;;;5.47;;
13147;SDS011;6639;50.956;4.242;2024-02-26T08:02:47;5.28;;;4.80;;
13147;SDS011;6639;50.956;4.242;2024-02-26T08:05:15;5.90;;;5.40;;
13147;SDS011;6639;50.956;4.242;2024-02-26T08:07:42;5.35;;;4.85;;
13147;SDS011;6639;50.956;4.242;2024-02-26T08:10:09;4.30;;;3.97;;
13147;SDS011;6639;50.956;4.242;2024-02-26T08:12:37;4.97;;;4.57;;
13147;SDS011;6639;50.956;4.242;2024-02-26T08:15:04;5.28;;;4.88;;
13147;SDS011;6639;50.956;4.242;2024-02-26T08:17:32;5.35;;;4.95;;
13147;SDS011;6639;50.956;4.242;2024-02-26T08:19:59;5.13;;;4.72;;
13147;SDS011;6639;50.956;4.242;2024-02-26T08:22:27;5.28;;;4.88;;
13147;SDS011;6639;50.956;4.242;2024-02-26T08:24:54;5.50;;;5.00;;
13147;SDS011;6639;50.956;4.242;2024-02-26T08:27:21;5.82;;;5.32;;
13147;SDS011;6639;50.956;4.242;2024-02-26T08:29:48;5.43;;;4.93;;
13147;SDS011;6639;50.956;4.242;2024-02-26T08:32:15;5.45;;;4.95;;
13147;SDS011;6639;50.956;4.242;2024-02-26T08:34:42;5.35;;;4.95;;
13147;SDS011;6639;50.956;4.242;2024-02-26T08:37:09;5.68;;;5.13;;
13147;SDS011;6639;50.956;4.242;2024-02-26T08:39:37;5.18;;;4.78;;
13147;SDS011;6639;50.956;4.242;2024-02-26T08:42:04;5.57;;;5.18;;
13147;SDS011;6639;50.956;4.242;2024-02-26T08:44:31;5.00;;;4.60;;
13147;SDS011;6639;50.956;4.242;2024-02-26T08:46:58;5.88;;;5.47;;
13147;SDS011;6639;50.956;4.242;2024-02-26T08:49:25;5.55;;;5.15;;
13147;SDS011;6639;50.956;4.242;2024-02-26T08:51:52;5.05;;;4.57;;
13147;SDS011;6639;50.956;4.242;2024-02-26T08:54:19;5.55;;;5.05;;
13147;SDS011;6639;50.956;4.242;2024-02-26T08:56:47;5.63;;;5.20;;
13147;SDS011;6639;50.956;4.242;2024-02-26T08:59:14;5.43;;;4.88;;
13147;SDS011;6639;50.956;4.242;2024-02-26T09:01:41;5.63;;;5.22;;
13147;SDS011;6639;50.956;4.242;2024-02-26T09:04:08;5.57;;;5.18;;
13147;SDS011;6639;50.956;4.242;2024-02-26T09:06:35;6.25;;;5.78;;
13147;SDS011;6639;50.956;4.242;2024-02-26T09:09:02;6.20;;;5.70;;
13147;SDS011;6639;50.956;4.242;2024-02-26T09:11:28;6.35;;;5.85;;
13147;SDS011;6639;50.956;4.242;2024-02-26T09:13:57;6.07;;;5.57;;
13147;SDS011;6639;50.956;4.242;2024-02-26T09:16:24;6.13;;;5.57;;
13147;SDS011;6639;50.956;4.242;2024-02-26T09:18:51;6.68;;;6.18;;
13147;SDS011;6639;50.956;4.242;2024-02-26T09:21:18;6.65;;;6.05;;
13147;SDS011;6639;50.956;4.242;2024-02-26T09:23:48;6.13;;;5.63;;
13147;SDS011;6639;50.956;4.242;2024-02-26T09:26:15;6.85;;;6.25;;
13147;SDS011;6639;50.956;4.242;2024-02-26T09:28:42;6.68;;;5.97;;
13147;SDS011;6639;50.956;4.242;2024-02-26T09:31:10;6.88;;;6.30;;
13147;SDS011;6639;50.956;4.242;2024-02-26T09:33:37;6.85;;;6.25;;
13147;SDS011;6639;50.956;4.242;2024-02-26T09:36:04;7.07;;;6.47;;
13147;SDS011;6639;50.956;4.242;2024-02-26T09:38:32;6.80;;;5.97;;
13147;SDS011;6639;50.956;4.242;2024-02-26T09:41:03;5.40;;;4.90;;
13147;SDS011;6639;50.956;4.242;2024-02-26T09:43:32;6.22;;;5.63;;
13147;SDS011;6639;50.956;4.242;2024-02-26T09:46:01;6.47;;;5.82;;
13147;SDS011;6639;50.956;4.242;2024-02-26T09:48:29;5.30;;;4.90;;
13147;SDS011;6639;50.956;4.242;2024-02-26T09:50:57;5.97;;;5.47;;
13147;SDS011;6639;50.956;4.242;2024-02-26T09:53:24;5.45;;;5.05;;
13147;SDS011;6639;50.956;4.242;2024-02-26T09:55:52;5.80;;;5.30;;
13147;SDS011;6639;50.956;4.242;2024-02-26T09:58:19;5.57;;;5.18;;
13147;SDS011;6639;50.956;4.242;2024-02-26T10:00:47;5.32;;;4.93;;
13147;SDS011;6639;50.956;4.242;2024-02-26T10:03:19;5.45;;;4.95;;
13147;SDS011;6639;50.956;4.242;2024-02-26T10:05:52;5.30;;;4.80;;
13147;SDS011;6639;50.956;4.242;2024-02-26T10:08:20;5.60;;;5.15;;
13147;SDS011;6639;50.956;4.242;2024-02-26T10:10:48;5.30;;;4.90;;
13147;SDS011;6639;50.956;4.242;2024-02-26T10:13:16;5.45;;;4.95;;
13147;SDS011;6639;50.956;4.242;2024-02-26T10:15:42;5.50;;;5.00;;
13147;SDS011;6639;50.956;4.242;2024-02-26T10:18:09;5.00;;;4.57;;
13147;SDS011;6639;50.956;4.242;2024-02-26T10:20:36;4.95;;;4.55;;
13147;SDS011;6639;50.956;4.242;2024-02-26T10:23:05;4.65;;;4.35;;
13147;SDS011;6639;50.956;4.242;2024-02-26T10:25:32;4.75;;;4.32;;
13147;SDS011;6639;50.956;4.242;2024-02-26T10:27:59;5.82;;;5.25;;
13147;SDS011;6639;50.956;4.242;2024-02-26T10:30:28;4.68;;;4.38;;
13147;SDS011;6639;50.956;4.242;2024-02-26T10:32:55;5.60;;;4.97;;
13147;SDS011;6639;50.956;4.242;2024-02-26T10:35:23;5.53;;;5.18;;
13147;SDS011;6639;50.956;4.242;2024-02-26T10:37:50;6.03;;;5.53;;
13147;SDS011;6639;50.956;4.242;2024-02-26T10:40:19;5.50;;;5.10;;
13147;SDS011;6639;50.956;4.242;2024-02-26T10:42:46;5.28;;;4.93;;
13147;SDS011;6639;50.956;4.242;2024-02-26T10:45:12;5.00;;;4.65;;
13147;SDS011;6639;50.956;4.242;2024-02-26T10:47:40;5.28;;;4.88;;
13147;SDS011;6639;50.956;4.242;2024-02-26T10:50:07;6.22;;;5.60;;
13147;SDS011;6639;50.956;4.242;2024-02-26T10:52:35;6.72;;;5.68;;
13147;SDS011;6639;50.956;4.242;2024-02-26T10:55:03;5.65;;;4.95;;
13147;SDS011;6639;50.956;4.242;2024-02-26T10:57:33;5.82;;;5.25;;
13147;SDS011;6639;50.956;4.242;2024-02-26T11:00:04;5.80;;;5.40;;
13147;SDS011;6639;50.956;4.242;2024-02-26T11:02:32;5.57;;;4.97;;
13147;SDS011;6639;50.956;4.242;2024-02-26T11:05:01;5.38;;;4.93;;
13147;SDS011;6639;50.956;4.242;2024-02-26T11:07:30;5.35;;;4.95;;
13147;SDS011;6639;50.956;4.242;2024-02-26T11:09:58;5.65;;;4.93;;
13147;SDS011;6639;50.956;4.242;2024-02-26T11:12:27;5.05;;;4.63;;
13147;SDS011;6639;50.956;4.242;2024-02-26T11:14:56;5.28;;;4.88;;
13147;SDS011;6639;50.956;4.242;2024-02-26T11:17:26;5.53;;;5.03;;
13147;SDS011;6639;50.956;4.242;2024-02-26T11:19:56;5.07;;;4.68;;
13147;SDS011;6639;50.956;4.242;2024-02-26T11:22:24;5.70;;;4.80;;
13147;SDS011;6639;50.956;4.242;2024-02-26T11:24:52;4.78;;;4.38;;
13147;SDS011;6639;50.956;4.242;2024-02-26T11:27:23;4.80;;;4.28;;
13147;SDS011;6639;50.956;4.242;2024-02-26T11:29:56;4.25;;;3.95;;
13147;SDS011;6639;50.956;4.242;2024-02-26T11:32:26;4.30;;;4.00;;
13147;SDS011;6639;50.956;4.242;2024-02-26T11:34:55;4.90;;;4.40;;
13147;SDS011;6639;50.956;4.242;2024-02-26T11:37:23;4.97;;;4.57;;
13147;SDS011;6639;50.956;4.242;2024-02-26T11:39:51;4.47;;;4.18;;
13147;SDS011;6639;50.956;4.242;2024-02-26T11:42:22;4.47;;;4.13;;
13147;SDS011;6639;50.956;4.242;2024-02-26T11:44:50;5.28;;;4.88;;
13147;SDS011;6639;50.956;4.242;2024-02-26T11:47:19;5.60;;;5.10;;
13147;SDS011;6639;50.956;4.242;2024-02-26T11:49:47;4.50;;;4.10;;
13147;SDS011;6639;50.956;4.242;2024-02-26T11:52:15;4.55;;;4.15;;
13147;SDS011;6639;50.956;4.242;2024-02-26T11:54:45;4.82;;;4.40;;
13147;SDS011;6639;50.956;4.242;2024-02-26T12:00:11;4.53;;;4.18;;
13147;SDS011;6639;50.956;4.242;2024-02-26T12:02:45;4.28;;;3.97;;
13147;SDS011;6639;50.956;4.242;2024-02-26T12:05:14;4.63;;;4.22;;
13147;SDS011;6639;50.956;4.242;2024-02-26T12:07:42;3.85;;;3.55;;
13147;SDS011;6639;50.956;4.242;2024-02-26T12:10:15;3.95;;;3.38;;
13147;SDS011;6639;50.956;4.242;2024-02-26T12:12:50;4.13;;;3.83;;
13147;SDS011;6639;50.956;4.242;2024-02-26T12:15:22;4.47;;;4.07;;
13147;SDS011;6639;50.956;4.242;2024-02-26T12:17:50;4.15;;;3.75;;
13147;SDS011;6639;50.956;4.242;2024-02-26T12:20:18;4.43;;;4.10;;
13147;SDS011;6639;50.956;4.242;2024-02-26T12:22:47;4.70;;;4.30;;
13147;SDS011;6639;50.956;4.242;2024-02-26T12:25:17;4.90;;;4.38;;
13147;SDS011;6639;50.956;4.242;2024-02-26T12:27:49;4.25;;;3.85;;
13147;SDS011;6639;50.956;4.242;2024-02-26T12:30:17;4.15;;;3.85;;
13147;SDS011;6639;50.956;4.242;2024-02-26T12:32:44;3.70;;;3.40;;
13147;SDS011;6639;50.956;4.242;2024-02-26T12:35:14;3.75;;;3.45;;
13147;SDS011;6639;50.956;4.242;2024-02-26T12:37:42;3.80;;;3.50;;
13147;SDS011;6639;50.956;4.242;2024-02-26T12:40:10;4.70;;;4.30;;
13147;SDS011;6639;50.956;4.242;2024-02-26T12:42:38;4.32;;;4.03;;
13147;SDS011;6639;50.956;4.242;2024-02-26T12:45:05;4.85;;;4.38;;
13147;SDS011;6639;50.956;4.242;2024-02-26T12:47:35;4.53;;;4.13;;
13147;SDS011;6639;50.956;4.242;2024-02-26T12:50:03;4.88;;;4.38;;
13147;SDS011;6639;50.956;4.242;2024-02-26T12:52:32;4.78;;;4.20;;
13147;SDS011;6639;50.956;4.242;2024-02-26T12:55:00;5.03;;;4.03;;
13147;SDS011;6639;50.956;4.242;2024-02-26T12:57:28;4.47;;;4.10;;
13147;SDS011;6639;50.956;4.242;2024-02-26T12:59:56;4.47;;;4.07;;
13147;SDS011;6639;50.956;4.242;2024-02-26T13:02:24;5.25;;;4.75;;
13147;SDS011;6639;50.956;4.242;2024-02-26T13:04:51;5.53;;;5.03;;
13147;SDS011;6639;50.956;4.242;2024-02-26T13:07:20;4.63;;;4.15;;
13147;SDS011;6639;50.956;4.242;2024-02-26T13:09:48;5.15;;;4.65;;
13147;SDS011;6639;50.956;4.242;2024-02-26T13:12:15;5.18;;;4.70;;
13147;SDS011;6639;50.956;4.242;2024-02-26T13:14:43;4.65;;;4.25;;
13147;SDS011;6639;50.956;4.242;2024-02-26T13:17:10;6.32;;;4.93;;
13147;SDS011;6639;50.956;4.242;2024-02-26T13:19:37;5.18;;;4.68;;
13147;SDS011;6639;50.956;4.242;2024-02-26T13:22:14;5.65;;;5.13;;
13147;SDS011;6639;50.956;4.242;2024-02-26T13:24:41;4.72;;;4.32;;
13147;SDS011;6639;50.956;4.242;2024-02-26T13:27:10;5.13;;;4.63;;
13147;SDS011;6639;50.956;4.242;2024-02-26T13:29:38;4.50;;;4.20;;
13147;SDS011;6639;50.956;4.242;2024-02-26T13:32:05;6.32;;;5.03;;
13147;SDS011;6639;50.956;4.242;2024-02-26T13:34:32;5.32;;;4.82;;
13147;SDS011;6639;50.956;4.242;2024-02-26T13:37:00;5.25;;;4.75;;
13147;SDS011;6639;50.956;4.242;2024-02-26T13:39:28;4.88;;;4.35;;
13147;SDS011;6639;50.956;4.242;2024-02-26T13:41:55;5.13;;;4.68;;
13147;SDS011;6639;50.956;4.242;2024-02-26T13:44:23;5.75;;;5.03;;
13147;SDS011;6639;50.956;4.242;2024-02-26T13:46:50;5.28;;;4.78;;
13147;SDS011;6639;50.956;4.242;2024-02-26T13:49:17;5.13;;;4.63;;
13147;SDS011;6639;50.956;4.242;2024-02-26T13:51:44;5.35;;;4.85;;
13147;SDS011;6639;50.956;4.242;2024-02-26T13:54:11;5.95;;;4.95;;
13147;SDS011;6639;50.956;4.242;2024-02-26T13:56:39;5.50;;;4.97;;
13147;SDS011;6639;50.956;4.242;2024-02-26T13:59:06;4.55;;;4.07;;
13147;SDS011;6639;50.956;4.242;2024-02-26T14:01:35;4.28;;;3.88;;
13147;SDS011;6639;50.956;4.242;2024-02-26T14:04:01;4.80;;;4.30;;
13147;SDS011;6639;50.956;4.242;2024-02-26T14:06:29;4.15;;;3.80;;
13147;SDS011;6639;50.956;4.242;2024-02-26T14:08:57;3.70;;;3.30;;
13147;SDS011;6639;50.956;4.242;2024-02-26T14:11:24;3.67;;;3.38;;
13147;SDS011;6639;50.956;4.242;2024-02-26T14:13:54;4.38;;;4.00;;
13147;SDS011;6639;50.956;4.242;2024-02-26T14:16:21;4.35;;;3.95;;
13147;SDS011;6639;50.956;4.242;2024-02-26T14:18:49;4.60;;;4.20;;
13147;SDS011;6639;50.956;4.242;2024-02-26T14:21:16;4.65;;;4.25;;
13147;SDS011;6639;50.956;4.242;2024-02-26T14:23:43;5.15;;;4.72;;
13147;SDS011;6639;50.956;4.242;2024-02-26T14:26:10;6.18;;;4.53;;
13147;SDS011;6639;50.956;4.242;2024-02-26T14:28:37;5.20;;;4.57;;
13147;SDS011;6639;50.956;4.242;2024-02-26T14:31:05;5.35;;;4.80;;
13147;SDS011;6639;50.956;4.242;2024-02-26T14:33:37;4.05;;;3.42;;
13147;SDS011;6639;50.956;4.242;2024-02-26T14:36:07;5.93;;;5.28;;
13147;SDS011;6639;50.956;4.242;2024-02-26T14:38:34;5.93;;;5.43;;
13147;SDS011;6639;50.956;4.242;2024-02-26T14:41:02;5.50;;;4.75;;
13147;SDS011;6639;50.956;4.242;2024-02-26T14:43:29;4.22;;;3.83;;
13147;SDS011;6639;50.956;4.242;2024-02-26T14:45:57;4.88;;;4.47;;
13147;SDS011;6639;50.956;4.242;2024-02-26T14:48:23;5.15;;;4.65;;
13147;SDS011;6639;50.956;4.242;2024-02-26T14:50:50;4.93;;;4.55;;
13147;SDS011;6639;50.956;4.242;2024-02-26T14:53:18;4.40;;;3.95;;
13147;SDS011;6639;50.956;4.242;2024-02-26T14:55:45;4.38;;;3.97;;
13147;SDS011;6639;50.956;4.242;2024-02-26T14:58:12;4.75;;;4.35;;
13147;SDS011;6639;50.956;4.242;2024-02-26T15:00:39;4.55;;;3.85;;
13147;SDS011;6639;50.956;4.242;2024-02-26T15:03:06;4.63;;;4.22;;
13147;SDS011;6639;50.956;4.242;2024-02-26T15:05:33;4.32;;;3.92;;